Dana Point, CA (92629)

3:15 PM PST on December 07, 2016 (GMT -0800)
Lantern Village | | Change Station

Elev 253 ft 33.47 °N, 117.70 °W | Updated 38 seconds ago

Scattered Clouds
Scattered Clouds
60.6 °F
Feels Like 60.6 °F
N
3.0
Wind Variable Wind from South
Gusts 0.0 mph

Today
High -- | Low -- °F
--% Chance of Precip.
Yesterday
High -- | Low -- °F
Precip. -- in
Pressure 30.08 in
Visibility 10.0 miles
Clouds Scattered Clouds 4300 ft
Scattered Clouds 30000 ft
Dew Point 53 °F
Humidity 77%
Rainfall 0.00 in
Snow Depth Not available.
6:42 AM 4:42 PM
First Quarter, 57% visible
METAR KSNA 072253Z 19008KT 10SM SCT043 SCT300 17/10 A3008 RMK AO2 SLP185 T01670100
Pressure 30.08 in
Visibility 10.0 miles
Clouds Scattered Clouds 4300 ft
Scattered Clouds 30000 ft
Dew Point 53 °F
Humidity 77%
Rainfall 0.00 in
Snow Depth Not available.
6:42 AM 4:42 PM
First Quarter, 57% visible
METAR KSNA 072253Z 19008KT 10SM SCT043 SCT300 17/10 A3008 RMK AO2 SLP185 T01670100

10-Day Weather Forecast

Almanac

Astronomy

Dec. 07, 2016 Rise Set
Actual Time
Civil Twilight
Nautical Twilight
Astronomical Twilight
Moon
Length of Visible Light
Length of Day
Tomorrow will be .
, % of the Moon is Illuminated

Today's Extremes

State Highs State Lows

Community

WunderPhotos

Upload Photos

1,956,216 photos uploaded!

WunderBlog® & News

Nearby

Air Quality

  Air Quality AQ Index Pollutant
Not available.

Snow Depth

Station Depth Elevation

Earthquake Activity

City Distance Mag. Time & Date
Minimum magnitude displayed is 2.5.

Coastal Water Temperatures

Place Temperature

Stations

Nearby Weather Stations

Station Location Temp. Windchill Dew Point Humidity Wind Precip. Elev Updated Type
                   

Watches & Warnings

There are currently no watches in effect.